Time;durP1;ratioP1;P1;durP2;ratioP2;P2;SDS_P1;SDS_P2;PMS_P1;PMS_P2;Temp;Humidity;BMP_temperature;BMP_pressure;BME280_temperature;BME280_humidity;BME280_pressure;Samples;Min_cycle;Max_cycle;Signal;HPM_P1;HPM_P2
2023/09/12 00:01:32;0.00;0.00;0.62;0.00;0.00;0.62;7.73;7.03;;;33.30;30.70;;;;;;2251628;61;20493;-60
2023/09/12 00:04:16;0.00;0.00;0.62;0.00;0.00;0.62;8.73;7.93;;;33.30;30.70;;;;;;2252015;61;20375;-61
2023/09/12 00:07:01;0.00;0.00;0.62;0.00;0.00;0.62;8.83;7.93;;;33.30;30.70;;;;;;2252276;61;20438;-60
2023/09/12 00:09:47;0.00;0.00;0.62;0.00;0.00;0.62;8.07;7.13;;;33.30;30.80;;;;;;2251887;61;20418;-61
2023/09/12 00:12:32;0.00;0.00;0.62;0.00;0.00;0.62;7.87;7.17;;;33.30;30.80;;;;;;2251824;61;20904;-61
2023/09/12 00:15:19;0.00;0.00;0.62;0.00;0.00;0.62;8.67;7.47;;;33.30;30.80;;;;;;2252144;61;20387;-61
2023/09/12 00:18:04;0.00;0.00;0.62;0.00;0.00;0.62;8.67;7.87;;;33.30;30.80;;;;;;2251812;61;20430;-61
2023/09/12 00:20:50;0.00;0.00;0.62;0.00;0.00;0.62;7.87;7.17;;;33.30;30.70;;;;;;2254396;61;20359;-61
2023/09/12 00:23:35;0.00;0.00;0.62;0.00;0.00;0.62;7.20;6.50;;;33.30;30.70;;;;;;2251985;61;20358;-61
2023/09/12 00:26:21;0.00;0.00;0.62;0.00;0.00;0.62;7.37;6.77;;;33.20;30.70;;;;;;2252058;61;20493;-61
2023/09/12 00:29:07;0.00;0.00;0.62;0.00;0.00;0.62;7.97;7.23;;;33.20;30.70;;;;;;2252171;61;20417;-61
2023/09/12 00:31:51;0.00;0.00;0.62;0.00;0.00;0.62;7.77;6.90;;;33.20;30.70;;;;;;2251438;61;20360;-61
2023/09/12 00:34:36;0.00;0.00;0.62;0.00;0.00;0.62;7.97;7.20;;;33.20;30.70;;;;;;2252005;61;20919;-59
2023/09/12 00:37:20;0.00;0.00;0.62;0.00;0.00;0.62;7.60;6.80;;;33.20;30.80;;;;;;2252089;61;20475;-62
2023/09/12 00:40:07;0.00;0.00;0.62;0.00;0.00;0.62;8.10;7.30;;;33.20;30.80;;;;;;2254166;61;20957;-60
2023/09/12 00:42:53;0.00;0.00;0.62;0.00;0.00;0.62;8.03;7.30;;;33.20;30.70;;;;;;2251771;61;20382;-61
2023/09/12 00:45:38;0.00;0.00;0.62;0.00;0.00;0.62;7.23;6.60;;;33.20;30.80;;;;;;2251908;61;20403;-61
2023/09/12 00:48:23;0.00;0.00;0.62;0.00;0.00;0.62;7.47;6.87;;;33.20;30.80;;;;;;2251717;61;20386;-61
2023/09/12 00:51:10;0.00;0.00;0.62;0.00;0.00;0.62;7.97;7.20;;;33.20;30.80;;;;;;2251977;61;20494;-61
2023/09/12 00:53:55;0.00;0.00;0.62;0.00;0.00;0.62;8.03;7.27;;;33.20;30.80;;;;;;2251755;61;20794;-61
2023/09/12 00:56:40;0.00;0.00;0.62;0.00;0.00;0.62;8.30;7.50;;;33.20;30.80;;;;;;2252312;61;20422;-63
2023/09/12 00:59:27;0.00;0.00;0.62;0.00;0.00;0.62;8.10;7.40;;;33.20;30.80;;;;;;2252148;61;20879;-61
2023/09/12 01:02:11;0.00;0.00;0.62;0.00;0.00;0.62;8.00;7.30;;;33.10;30.80;;;;;;2251439;61;20525;-67
2023/09/12 01:04:56;0.00;0.00;0.62;0.00;0.00;0.62;8.77;7.93;;;33.20;30.80;;;;;;2252381;61;20932;-62
2023/09/12 01:07:43;0.00;0.00;0.62;0.00;0.00;0.62;8.30;7.17;;;33.20;30.90;;;;;;2252073;61;20465;-62
2023/09/12 01:10:28;0.00;0.00;0.62;0.00;0.00;0.62;7.53;6.73;;;33.10;30.80;;;;;;2251605;61;20354;-61
2023/09/12 01:13:13;0.00;0.00;0.62;0.00;0.00;0.62;7.87;7.17;;;33.20;30.90;;;;;;2251771;61;20367;-61
2023/09/12 01:15:59;0.00;0.00;0.62;0.00;0.00;0.62;7.70;7.00;;;33.20;30.90;;;;;;2251843;61;20398;-61
2023/09/12 01:18:45;0.00;0.00;0.62;0.00;0.00;0.62;7.40;6.70;;;33.20;30.90;;;;;;2255217;61;21003;-61
2023/09/12 01:22:09;0.00;0.00;0.62;0.00;0.00;0.62;7.80;7.10;;;33.10;30.80;;;;;;2252316;61;20787;-59
2023/09/12 01:25:26;0.00;0.00;0.62;0.00;0.00;0.62;7.30;6.70;;;33.10;30.80;;;;;;2252431;61;20394;-57
2023/09/12 01:28:16;0.00;0.00;0.62;0.00;0.00;0.62;7.17;6.57;;;33.10;30.90;;;;;;2252082;61;20386;-61
2023/09/12 01:31:02;0.00;0.00;0.62;0.00;0.00;0.62;8.17;7.13;;;33.10;30.80;;;;;;2252120;61;20427;-61
2023/09/12 01:33:47;0.00;0.00;0.62;0.00;0.00;0.62;7.20;6.60;;;33.10;30.80;;;;;;2247741;61;20371;-61
2023/09/12 01:36:32;0.00;0.00;0.62;0.00;0.00;0.62;8.13;7.43;;;33.10;30.90;;;;;;2251830;61;20363;-58
2023/09/12 01:39:16;0.00;0.00;0.62;0.00;0.00;0.62;7.50;6.90;;;33.10;30.80;;;;;;2496428;53;20380;-60
2023/09/12 01:42:02;0.00;0.00;0.62;0.00;0.00;0.62;6.57;5.97;;;33.10;30.90;;;;;;2247989;61;20371;-61
2023/09/12 01:44:54;0.00;0.00;0.62;0.00;0.00;0.62;8.43;7.63;;;33.10;30.90;;;;;;2250673;61;20360;-61
2023/09/12 01:47:39;0.00;0.00;0.62;0.00;0.00;0.62;9.03;7.10;;;33.10;30.90;;;;;;2248389;61;20966;-61
2023/09/12 01:50:27;0.00;0.00;0.62;0.00;0.00;0.62;7.90;7.20;;;33.10;30.90;;;;;;2248148;61;20953;-61
2023/09/12 01:53:14;0.00;0.00;0.62;0.00;0.00;0.62;7.70;7.00;;;33.10;30.90;;;;;;2248014;61;20364;-61
2023/09/12 01:56:00;0.00;0.00;0.62;0.00;0.00;0.62;7.20;6.60;;;33.10;30.90;;;;;;2248395;61;20387;-62
2023/09/12 01:58:45;0.00;0.00;0.62;0.00;0.00;0.62;7.60;6.93;;;33.10;30.90;;;;;;2248244;61;20414;-62
2023/09/12 02:01:31;0.00;0.00;0.62;0.00;0.00;0.62;7.10;6.50;;;33.10;30.90;;;;;;2250180;61;20415;-61
2023/09/12 02:04:17;0.00;0.00;0.62;0.00;0.00;0.62;7.10;6.50;;;33.10;30.90;;;;;;2248758;61;20372;-61
2023/09/12 02:07:02;0.00;0.00;0.62;0.00;0.00;0.62;7.40;6.80;;;33.10;30.90;;;;;;2248476;61;20906;-62
2023/09/12 02:09:47;0.00;0.00;0.62;0.00;0.00;0.62;7.20;6.60;;;33.00;30.90;;;;;;2248867;61;20495;-62
2023/09/12 02:12:31;0.00;0.00;0.62;0.00;0.00;0.62;7.40;6.73;;;33.10;31.00;;;;;;2248353;61;20375;-62
2023/09/12 02:15:16;0.00;0.00;0.62;0.00;0.00;0.62;7.83;7.00;;;33.10;31.00;;;;;;2248245;61;20549;-61
2023/09/12 02:18:03;0.00;0.00;0.62;0.00;0.00;0.62;8.10;7.40;;;33.00;30.90;;;;;;2248178;61;20391;-61
2023/09/12 02:20:48;0.00;0.00;0.62;0.00;0.00;0.62;7.43;6.83;;;33.10;31.00;;;;;;2248612;61;20372;-62
2023/09/12 02:23:33;0.00;0.00;0.62;0.00;0.00;0.62;6.90;6.30;;;33.10;31.00;;;;;;2247922;61;20446;-62
2023/09/12 02:26:18;0.00;0.00;0.62;0.00;0.00;0.62;7.50;6.80;;;33.00;30.90;;;;;;2248163;61;20450;-60
2023/09/12 02:29:05;0.00;0.00;0.62;0.00;0.00;0.62;7.43;6.83;;;33.00;30.90;;;;;;2248401;61;20419;-61
2023/09/12 02:31:50;0.00;0.00;0.62;0.00;0.00;0.62;7.03;6.50;;;33.00;31.00;;;;;;2248194;61;20367;-61
2023/09/12 02:34:36;0.00;0.00;0.62;0.00;0.00;0.62;7.10;6.50;;;33.00;31.00;;;;;;2248128;61;20411;-63
2023/09/12 02:37:20;0.00;0.00;0.62;0.00;0.00;0.62;7.33;6.40;;;33.00;30.90;;;;;;2247824;61;20392;-61
2023/09/12 02:40:10;0.00;0.00;0.62;0.00;0.00;0.62;7.03;6.43;;;33.00;30.90;;;;;;2248513;61;20367;-62
2023/09/12 02:42:54;0.00;0.00;0.62;0.00;0.00;0.62;9.27;7.00;;;33.00;31.00;;;;;;2248213;61;20364;-61
2023/09/12 02:45:39;0.00;0.00;0.62;0.00;0.00;0.62;7.23;6.57;;;33.00;31.00;;;;;;2248681;61;20402;-62
2023/09/12 02:48:24;0.00;0.00;0.62;0.00;0.00;0.62;7.47;6.80;;;33.00;31.00;;;;;;2252527;61;20442;-60
2023/09/12 02:51:09;0.00;0.00;0.62;0.00;0.00;0.62;7.20;6.60;;;33.00;31.00;;;;;;2252554;61;20413;-60
2023/09/12 02:53:54;0.00;0.00;0.62;0.00;0.00;0.62;7.70;7.00;;;33.00;31.00;;;;;;2251967;61;20374;-61
2023/09/12 02:56:39;0.00;0.00;0.62;0.00;0.00;0.62;7.23;6.67;;;33.00;31.00;;;;;;2251903;61;20936;-61
2023/09/12 02:59:23;0.00;0.00;0.62;0.00;0.00;0.62;7.17;6.57;;;33.00;31.00;;;;;;2252087;61;20374;-58
2023/09/12 03:02:08;0.00;0.00;0.62;0.00;0.00;0.62;8.63;7.13;;;32.90;30.90;;;;;;2252153;61;20550;-61
2023/09/12 03:04:53;0.00;0.00;0.62;0.00;0.00;0.62;7.47;6.73;;;32.90;30.90;;;;;;2252575;61;21058;-61
2023/09/12 03:07:39;0.00;0.00;0.62;0.00;0.00;0.62;7.40;6.87;;;32.90;30.90;;;;;;2251860;61;20383;-60
2023/09/12 03:10:23;0.00;0.00;0.62;0.00;0.00;0.62;7.00;6.40;;;32.90;30.90;;;;;;2252229;61;20806;-61
2023/09/12 03:13:11;0.00;0.00;0.62;0.00;0.00;0.62;6.63;6.03;;;32.90;30.90;;;;;;2251562;61;20874;-60
2023/09/12 03:15:55;0.00;0.00;0.62;0.00;0.00;0.62;8.70;7.90;;;32.90;30.90;;;;;;2252269;61;20441;-61
2023/09/12 03:18:40;0.00;0.00;0.62;0.00;0.00;0.62;7.10;6.50;;;32.90;31.00;;;;;;2252068;61;20390;-66
2023/09/12 03:21:25;0.00;0.00;0.62;0.00;0.00;0.62;7.37;6.77;;;32.90;31.00;;;;;;2251917;61;20418;-62
2023/09/12 03:24:10;0.00;0.00;0.62;0.00;0.00;0.62;6.70;6.10;;;32.90;31.00;;;;;;2252283;61;20418;-62
2023/09/12 03:26:55;0.00;0.00;0.62;0.00;0.00;0.62;7.50;6.87;;;32.90;31.00;;;;;;2251819;61;21044;-62
2023/09/12 03:29:40;0.00;0.00;0.62;0.00;0.00;0.62;6.90;6.40;;;32.90;31.00;;;;;;2532916;45;20351;-61
2023/09/12 03:32:24;0.00;0.00;0.62;0.00;0.00;0.62;7.30;6.73;;;32.90;31.00;;;;;;2251709;61;20367;-58
2023/09/12 03:35:09;0.00;0.00;0.62;0.00;0.00;0.62;7.40;6.70;;;32.90;31.00;;;;;;2251987;61;20801;-62
2023/09/12 03:37:54;0.00;0.00;0.62;0.00;0.00;0.62;6.80;6.30;;;32.90;31.10;;;;;;2252182;61;20794;-62
2023/09/12 03:40:39;0.00;0.00;0.62;0.00;0.00;0.62;7.70;7.10;;;32.90;31.00;;;;;;2251807;61;20820;-61
2023/09/12 03:43:24;0.00;0.00;0.62;0.00;0.00;0.62;6.93;6.30;;;32.90;31.10;;;;;;2251866;61;21012;-61
2023/09/12 03:46:10;0.00;0.00;0.62;0.00;0.00;0.62;6.97;6.37;;;32.90;31.00;;;;;;2251891;61;20884;-61
2023/09/12 03:48:55;0.00;0.00;0.62;0.00;0.00;0.62;6.50;5.60;;;32.90;31.10;;;;;;2251495;61;20451;-60
2023/09/12 03:51:39;0.00;0.00;0.62;0.00;0.00;0.62;6.80;6.20;;;32.90;31.10;;;;;;2251181;61;20764;-63
2023/09/12 03:54:24;0.00;0.00;0.62;0.00;0.00;0.62;7.00;6.40;;;32.80;31.00;;;;;;2251751;61;20932;-61
2023/09/12 03:57:10;0.00;0.00;0.62;0.00;0.00;0.62;6.90;6.20;;;32.80;31.00;;;;;;2251682;61;20426;-61
2023/09/12 03:59:55;0.00;0.00;0.62;0.00;0.00;0.62;7.27;6.73;;;32.80;31.00;;;;;;2251827;61;20375;-61
2023/09/12 04:02:40;0.00;0.00;0.62;0.00;0.00;0.62;6.67;6.17;;;32.80;31.00;;;;;;2251437;61;20382;-61
2023/09/12 04:05:25;0.00;0.00;0.62;0.00;0.00;0.62;6.97;6.33;;;32.80;31.00;;;;;;2251918;61;20359;-61
2023/09/12 04:08:10;0.00;0.00;0.62;0.00;0.00;0.62;7.63;6.93;;;32.80;31.00;;;;;;2252174;61;20474;-62
2023/09/12 04:10:54;0.00;0.00;0.62;0.00;0.00;0.62;7.83;6.83;;;32.80;31.00;;;;;;2252382;61;20370;-61
2023/09/12 04:13:40;0.00;0.00;0.62;0.00;0.00;0.62;6.60;6.00;;;32.80;31.00;;;;;;2251755;61;20385;-61
2023/09/12 04:16:25;0.00;0.00;0.62;0.00;0.00;0.62;10.80;6.87;;;32.80;31.10;;;;;;2252059;61;20525;-62
2023/09/12 04:19:10;0.00;0.00;0.62;0.00;0.00;0.62;6.90;6.30;;;32.80;31.10;;;;;;2251729;61;20401;-62
2023/09/12 04:21:54;0.00;0.00;0.62;0.00;0.00;0.62;7.20;6.50;;;32.80;31.10;;;;;;2251634;61;20367;-61
2023/09/12 04:24:39;0.00;0.00;0.62;0.00;0.00;0.62;6.97;6.47;;;32.80;31.20;;;;;;2251710;61;20892;-61
2023/09/12 04:27:23;0.00;0.00;0.62;0.00;0.00;0.62;7.50;6.40;;;32.80;31.20;;;;;;2251796;61;20806;-60
2023/09/12 04:30:11;0.00;0.00;0.62;0.00;0.00;0.62;7.20;6.60;;;32.80;31.20;;;;;;2252301;61;20451;-62
2023/09/12 04:32:55;0.00;0.00;0.62;0.00;0.00;0.62;7.67;5.87;;;32.80;31.20;;;;;;2251147;61;20370;-57
2023/09/12 04:35:40;0.00;0.00;0.62;0.00;0.00;0.62;6.90;5.80;;;32.80;31.20;;;;;;2251121;61;20446;-62
2023/09/12 04:38:25;0.00;0.00;0.62;0.00;0.00;0.62;5.73;5.23;;;32.80;31.20;;;;;;2251426;61;20394;-61
2023/09/12 04:41:16;0.00;0.00;0.62;0.00;0.00;0.62;6.23;5.73;;;32.70;31.20;;;;;;2251483;61;20832;-62
2023/09/12 04:44:02;0.00;0.00;0.62;0.00;0.00;0.62;7.17;6.47;;;32.70;31.20;;;;;;2251245;61;20414;-61
2023/09/12 04:46:48;0.00;0.00;0.62;0.00;0.00;0.62;6.30;5.70;;;32.80;31.30;;;;;;2251565;61;20398;-59
2023/09/12 04:49:33;0.00;0.00;0.62;0.00;0.00;0.62;6.53;5.77;;;32.80;31.30;;;;;;2251654;61;20421;-62
2023/09/12 04:52:18;0.00;0.00;0.62;0.00;0.00;0.62;5.90;5.37;;;32.80;31.30;;;;;;2251206;61;20367;-62
2023/09/12 04:55:04;0.00;0.00;0.62;0.00;0.00;0.62;6.23;5.63;;;32.70;31.20;;;;;;2252113;61;20957;-62
2023/09/12 04:57:49;0.00;0.00;0.62;0.00;0.00;0.62;8.40;6.30;;;32.70;31.30;;;;;;2248651;61;20402;-62
2023/09/12 05:00:34;0.00;0.00;0.62;0.00;0.00;0.62;6.10;5.43;;;32.70;31.20;;;;;;2249125;61;20418;-59
2023/09/12 05:03:20;0.00;0.00;0.62;0.00;0.00;0.62;5.37;4.87;;;32.70;31.30;;;;;;2251796;61;20378;-65
2023/09/12 05:06:05;0.00;0.00;0.62;0.00;0.00;0.62;7.30;5.50;;;32.70;31.30;;;;;;2251296;61;20832;-61
2023/09/12 05:08:49;0.00;0.00;0.62;0.00;0.00;0.62;5.90;5.40;;;32.70;31.20;;;;;;2251631;61;20831;-66
2023/09/12 05:11:35;0.00;0.00;0.62;0.00;0.00;0.62;8.30;5.77;;;32.70;31.30;;;;;;2251252;61;20417;-61
2023/09/12 05:14:20;0.00;0.00;0.62;0.00;0.00;0.62;5.83;5.23;;;32.70;31.30;;;;;;2251477;61;20451;-61
2023/09/12 05:17:05;0.00;0.00;0.62;0.00;0.00;0.62;6.67;5.60;;;32.70;31.30;;;;;;2251674;61;20391;-60
2023/09/12 05:19:51;0.00;0.00;0.62;0.00;0.00;0.62;6.10;5.03;;;32.70;31.30;;;;;;2251317;61;20368;-61
2023/09/12 05:22:36;0.00;0.00;0.62;0.00;0.00;0.62;5.17;4.77;;;32.70;31.30;;;;;;2251718;61;20421;-62
2023/09/12 05:25:20;0.00;0.00;0.62;0.00;0.00;0.62;5.93;5.43;;;32.70;31.30;;;;;;2251526;61;20363;-61
2023/09/12 05:28:05;0.00;0.00;0.62;0.00;0.00;0.62;5.47;4.97;;;32.70;31.30;;;;;;2251483;61;20397;-61
2023/09/12 05:30:50;0.00;0.00;0.62;0.00;0.00;0.62;5.77;5.13;;;32.60;31.20;;;;;;2251601;61;20425;-61
2023/09/12 05:33:35;0.00;0.00;0.62;0.00;0.00;0.62;5.27;4.80;;;32.60;31.20;;;;;;2251374;61;20944;-61
2023/09/12 05:36:21;0.00;0.00;0.62;0.00;0.00;0.62;5.43;4.90;;;32.60;31.20;;;;;;2251132;61;20398;-61
2023/09/12 05:39:06;0.00;0.00;0.62;0.00;0.00;0.62;5.20;4.80;;;32.60;31.20;;;;;;2251371;61;20442;-62
2023/09/12 05:41:50;0.00;0.00;0.62;0.00;0.00;0.62;5.40;4.90;;;32.60;31.20;;;;;;2251349;61;20409;-60
2023/09/12 05:44:35;0.00;0.00;0.62;0.00;0.00;0.62;7.33;5.20;;;32.60;31.20;;;;;;2251808;61;20378;-61
2023/09/12 05:47:20;0.00;0.00;0.62;0.00;0.00;0.62;5.67;5.07;;;32.60;31.20;;;;;;2251607;61;20383;-62
2023/09/12 05:50:06;0.00;0.00;0.62;0.00;0.00;0.62;5.40;4.77;;;32.60;31.20;;;;;;2251457;61;20911;-63
2023/09/12 05:52:53;0.00;0.00;0.62;0.00;0.00;0.62;5.00;4.53;;;32.60;31.20;;;;;;2253799;61;20453;-61
2023/09/12 05:55:38;0.00;0.00;0.62;0.00;0.00;0.62;5.33;4.83;;;32.60;31.20;;;;;;2251748;61;20383;-62
2023/09/12 05:58:23;0.00;0.00;0.62;0.00;0.00;0.62;4.87;4.47;;;32.60;31.20;;;;;;2251621;61;20425;-63
2023/09/12 06:01:08;0.00;0.00;0.62;0.00;0.00;0.62;6.53;4.60;;;32.60;31.20;;;;;;2251678;61;20382;-62
2023/09/12 06:03:53;0.00;0.00;0.62;0.00;0.00;0.62;6.23;5.63;;;32.60;31.20;;;;;;2252003;61;20378;-61
2023/09/12 06:06:38;0.00;0.00;0.62;0.00;0.00;0.62;5.17;4.60;;;32.60;31.20;;;;;;2252674;61;20836;-61
2023/09/12 06:09:24;0.00;0.00;0.62;0.00;0.00;0.62;5.60;5.10;;;32.60;31.20;;;;;;2252610;61;20378;-61
2023/09/12 06:12:09;0.00;0.00;0.62;0.00;0.00;0.62;6.47;5.03;;;32.60;31.20;;;;;;2252032;61;20818;-62
2023/09/12 06:14:55;0.00;0.00;0.62;0.00;0.00;0.62;5.03;4.53;;;32.60;31.20;;;;;;2252544;61;20383;-65
2023/09/12 06:17:40;0.00;0.00;0.62;0.00;0.00;0.62;5.73;5.13;;;32.50;31.10;;;;;;2252780;61;20387;-61
2023/09/12 06:20:25;0.00;0.00;0.62;0.00;0.00;0.62;6.70;5.70;;;32.60;31.20;;;;;;2252322;61;20406;-61
2023/09/12 06:23:10;0.00;0.00;0.62;0.00;0.00;0.62;5.60;5.10;;;32.50;31.10;;;;;;2252376;61;20819;-62
2023/09/12 06:25:56;0.00;0.00;0.62;0.00;0.00;0.62;5.17;4.67;;;32.60;31.20;;;;;;2252716;61;20813;-65
2023/09/12 06:28:41;0.00;0.00;0.62;0.00;0.00;0.62;7.77;5.40;;;32.60;31.20;;;;;;2252715;61;20374;-62
2023/09/12 06:31:25;0.00;0.00;0.62;0.00;0.00;0.62;5.60;5.10;;;32.60;31.20;;;;;;2252561;61;20367;-62
2023/09/12 06:34:10;0.00;0.00;0.62;0.00;0.00;0.62;5.40;4.90;;;32.50;31.10;;;;;;2252355;61;20390;-62
2023/09/12 06:36:55;0.00;0.00;0.62;0.00;0.00;0.62;6.20;5.07;;;32.50;31.10;;;;;;2252490;61;20413;-60
2023/09/12 06:39:39;0.00;0.00;0.62;0.00;0.00;0.62;5.40;4.90;;;32.50;31.10;;;;;;2252508;61;20462;-60
2023/09/12 06:42:25;0.00;0.00;0.62;0.00;0.00;0.62;5.30;4.63;;;32.50;31.10;;;;;;2252028;61;20371;-59
2023/09/12 06:45:10;0.00;0.00;0.62;0.00;0.00;0.62;5.37;4.87;;;32.50;31.20;;;;;;2252541;61;20443;-61
2023/09/12 06:47:55;0.00;0.00;0.62;0.00;0.00;0.62;5.30;4.53;;;32.50;31.20;;;;;;2252469;61;20391;-61
2023/09/12 06:50:40;0.00;0.00;0.62;0.00;0.00;0.62;5.60;5.00;;;32.50;31.20;;;;;;2252386;61;20367;-62
2023/09/12 06:53:24;0.00;0.00;0.62;0.00;0.00;0.62;6.07;4.97;;;32.50;31.80;;;;;;2252156;61;20425;-63
2023/09/12 06:56:09;0.00;0.00;0.62;0.00;0.00;0.62;4.60;3.97;;;32.50;31.20;;;;;;2252035;61;20379;-61
2023/09/12 06:58:55;0.00;0.00;0.62;0.00;0.00;0.62;4.70;4.03;;;32.50;31.20;;;;;;2252436;61;20394;-59
2023/09/12 07:01:40;0.00;0.00;0.62;0.00;0.00;0.62;4.70;4.20;;;32.50;31.20;;;;;;2252268;61;20375;-60
2023/09/12 07:04:25;0.00;0.00;0.62;0.00;0.00;0.62;4.80;3.83;;;32.50;31.20;;;;;;2252177;61;21303;-60
2023/09/12 07:07:10;0.00;0.00;0.62;0.00;0.00;0.62;4.70;4.30;;;32.50;31.20;;;;;;2252413;61;20397;-59
2023/09/12 07:09:54;0.00;0.00;0.62;0.00;0.00;0.62;4.73;4.23;;;32.50;31.20;;;;;;2252268;61;20458;-61
2023/09/12 07:12:39;0.00;0.00;0.62;0.00;0.00;0.62;4.80;4.30;;;32.50;31.20;;;;;;2251440;61;20940;-60
2023/09/12 07:15:25;0.00;0.00;0.62;0.00;0.00;0.62;4.83;4.40;;;32.50;31.30;;;;;;2252460;61;20387;-61
2023/09/12 07:18:09;0.00;0.00;0.62;0.00;0.00;0.62;4.63;4.10;;;32.40;31.20;;;;;;2252056;61;20984;-61
2023/09/12 07:20:57;0.00;0.00;0.62;0.00;0.00;0.62;6.53;4.70;;;32.50;31.30;;;;;;2252256;61;20402;-62
2023/09/12 07:23:42;0.00;0.00;0.62;0.00;0.00;0.62;4.70;4.20;;;32.50;31.30;;;;;;2252387;61;20366;-61
2023/09/12 07:26:26;0.00;0.00;0.62;0.00;0.00;0.62;4.73;3.90;;;32.50;31.30;;;;;;2252294;61;20949;-61
2023/09/12 07:29:12;0.00;0.00;0.62;0.00;0.00;0.62;5.60;4.83;;;32.50;31.30;;;;;;2252539;61;20370;-59
2023/09/12 07:31:58;0.00;0.00;0.62;0.00;0.00;0.62;4.90;4.20;;;32.50;31.30;;;;;;2251931;61;20418;-60
2023/09/12 07:34:48;0.00;0.00;0.62;0.00;0.00;0.62;3.70;3.40;;;32.50;31.30;;;;;;2251986;61;21117;-61
2023/09/12 07:37:33;0.00;0.00;0.62;0.00;0.00;0.62;4.90;4.00;;;32.50;31.30;;;;;;2252308;61;20483;-60
2023/09/12 07:40:17;0.00;0.00;0.62;0.00;0.00;0.62;5.10;4.10;;;32.50;31.30;;;;;;2252003;61;20884;-60
2023/09/12 07:43:02;0.00;0.00;0.62;0.00;0.00;0.62;4.50;3.80;;;32.40;31.30;;;;;;2251915;61;20790;-61
2023/09/12 07:45:49;0.00;0.00;0.62;0.00;0.00;0.62;4.03;3.73;;;32.40;31.30;;;;;;2252378;61;20382;-62
2023/09/12 07:48:35;0.00;0.00;0.62;0.00;0.00;0.62;4.77;3.40;;;32.40;31.30;;;;;;2251711;61;20473;-61
2023/09/12 07:51:22;0.00;0.00;0.62;0.00;0.00;0.62;5.13;4.33;;;32.40;31.30;;;;;;2252392;61;20398;-61
2023/09/12 07:54:07;0.00;0.00;0.62;0.00;0.00;0.62;4.00;3.57;;;32.40;31.30;;;;;;2252202;61;20370;-61
2023/09/12 07:56:52;0.00;0.00;0.62;0.00;0.00;0.62;3.97;3.57;;;32.40;31.30;;;;;;2251866;61;20536;-61
2023/09/12 07:59:36;0.00;0.00;0.62;0.00;0.00;0.62;4.90;4.10;;;32.40;31.30;;;;;;2252088;61;20391;-61
2023/09/12 08:02:21;0.00;0.00;0.62;0.00;0.00;0.62;5.10;4.00;;;32.40;31.40;;;;;;2251679;61;20367;-62
2023/09/12 08:05:08;0.00;0.00;0.62;0.00;0.00;0.62;3.90;3.50;;;32.40;31.40;;;;;;2252200;61;20359;-62
2023/09/12 08:07:53;0.00;0.00;0.62;0.00;0.00;0.62;3.57;3.20;;;32.40;31.40;;;;;;2252392;61;20394;-62
2023/09/12 08:10:37;0.00;0.00;0.62;0.00;0.00;0.62;4.87;4.40;;;32.40;31.40;;;;;;2251962;61;20374;-58
2023/09/12 08:13:22;0.00;0.00;0.62;0.00;0.00;0.62;4.67;4.20;;;32.40;31.50;;;;;;2251817;61;20430;-60
2023/09/12 08:16:06;0.00;0.00;0.62;0.00;0.00;0.62;5.07;4.10;;;32.40;31.50;;;;;;2252106;61;20975;-61
2023/09/12 08:18:51;0.00;0.00;0.62;0.00;0.00;0.62;4.20;3.80;;;32.40;31.50;;;;;;2252097;61;20956;-61
2023/09/12 08:21:36;0.00;0.00;0.62;0.00;0.00;0.62;4.90;4.10;;;32.40;31.50;;;;;;2252444;61;20860;-62
2023/09/12 08:24:23;0.00;0.00;0.62;0.00;0.00;0.62;4.97;4.30;;;32.40;31.50;;;;;;2252175;61;20371;-60
2023/09/12 08:27:09;0.00;0.00;0.62;0.00;0.00;0.62;4.70;4.20;;;32.40;31.50;;;;;;2252149;61;20430;-62
2023/09/12 08:29:54;0.00;0.00;0.62;0.00;0.00;0.62;5.43;4.20;;;32.40;31.50;;;;;;2252325;61;20453;-62
2023/09/12 08:32:43;0.00;0.00;0.62;0.00;0.00;0.62;4.40;3.83;;;32.40;31.60;;;;;;2251567;61;20367;-60
2023/09/12 08:35:27;0.00;0.00;0.62;0.00;0.00;0.62;4.10;3.70;;;32.40;31.60;;;;;;2252291;61;20923;-61
2023/09/12 08:38:13;0.00;0.00;0.62;0.00;0.00;0.62;4.60;3.60;;;32.40;31.60;;;;;;2252245;61;20955;-62
2023/09/12 08:40:58;0.00;0.00;0.62;0.00;0.00;0.62;4.60;4.20;;;32.40;31.60;;;;;;2251889;61;20366;-62
2023/09/12 08:43:43;0.00;0.00;0.62;0.00;0.00;0.62;5.10;4.60;;;32.40;31.60;;;;;;2251925;61;20367;-62
2023/09/12 08:46:28;0.00;0.00;0.62;0.00;0.00;0.62;4.73;4.23;;;32.40;31.60;;;;;;2252184;61;20373;-62
2023/09/12 08:49:13;0.00;0.00;0.62;0.00;0.00;0.62;5.30;3.60;;;32.40;31.70;;;;;;2252322;61;20410;-61
2023/09/12 08:51:57;0.00;0.00;0.62;0.00;0.00;0.62;5.10;4.60;;;32.40;31.70;;;;;;2251823;61;20892;-65
2023/09/12 08:54:43;0.00;0.00;0.62;0.00;0.00;0.62;4.50;4.10;;;32.40;31.70;;;;;;2251740;61;20701;-62
2023/09/12 08:57:30;0.00;0.00;0.62;0.00;0.00;0.62;5.13;4.13;;;32.40;31.70;;;;;;2252132;61;20530;-64
2023/09/12 09:00:15;0.00;0.00;0.62;0.00;0.00;0.62;4.13;3.57;;;32.40;31.70;;;;;;2252034;61;20370;-62
2023/09/12 09:03:00;0.00;0.00;0.62;0.00;0.00;0.62;4.40;4.00;;;32.40;31.70;;;;;;2251210;61;20370;-59
2023/09/12 09:05:48;0.00;0.00;0.62;0.00;0.00;0.62;4.27;3.77;;;32.40;31.70;;;;;;2251993;61;20418;-62
2023/09/12 09:08:33;0.00;0.00;0.62;0.00;0.00;0.62;4.93;3.70;;;32.40;31.70;;;;;;2252056;61;20470;-61
2023/09/12 09:11:19;0.00;0.00;0.62;0.00;0.00;0.62;4.97;4.27;;;32.40;31.70;;;;;;2251941;61;20374;-61
2023/09/12 09:14:04;0.00;0.00;0.62;0.00;0.00;0.62;4.87;4.40;;;32.40;31.70;;;;;;2251939;61;20525;-63
2023/09/12 09:16:49;0.00;0.00;0.62;0.00;0.00;0.62;3.30;3.00;;;32.40;31.70;;;;;;2251659;61;20400;-61
2023/09/12 09:19:41;0.00;0.00;0.62;0.00;0.00;0.62;4.40;4.00;;;32.40;31.70;;;;;;2252133;61;20379;-62
2023/09/12 09:22:26;0.00;0.00;0.62;0.00;0.00;0.62;3.93;3.63;;;32.40;31.70;;;;;;2251729;61;20366;-60
2023/09/12 09:25:12;0.00;0.00;0.62;0.00;0.00;0.62;4.20;3.67;;;32.40;31.70;;;;;;2252066;61;20952;-61
2023/09/12 09:27:58;0.00;0.00;0.62;0.00;0.00;0.62;5.23;3.93;;;32.40;31.70;;;;;;2252105;61;20414;-61
2023/09/12 09:30:45;0.00;0.00;0.62;0.00;0.00;0.62;3.90;3.50;;;32.40;31.70;;;;;;2252279;61;20428;-61
2023/09/12 09:33:35;0.00;0.00;0.62;0.00;0.00;0.62;4.40;3.10;;;32.40;31.70;;;;;;2251611;61;20370;-61
2023/09/12 09:36:20;0.00;0.00;0.62;0.00;0.00;0.62;4.33;4.00;;;32.30;31.60;;;;;;2252347;61;20382;-62
2023/09/12 09:39:05;0.00;0.00;0.62;0.00;0.00;0.62;4.07;3.23;;;32.40;31.70;;;;;;2252643;61;20406;-62
2023/09/12 09:41:52;0.00;0.00;0.62;0.00;0.00;0.62;4.23;3.83;;;32.40;31.70;;;;;;2252804;61;20367;-64
2023/09/12 09:44:38;0.00;0.00;0.62;0.00;0.00;0.62;4.13;3.73;;;32.40;31.70;;;;;;2252694;61;20421;-63
2023/09/12 09:47:23;0.00;0.00;0.62;0.00;0.00;0.62;3.80;3.23;;;32.40;31.70;;;;;;2252470;61;20386;-61
2023/09/12 09:50:13;0.00;0.00;0.62;0.00;0.00;0.62;3.53;3.23;;;32.40;31.70;;;;;;2252738;61;20864;-61
2023/09/12 09:52:58;0.00;0.00;0.62;0.00;0.00;0.62;3.93;3.53;;;32.40;31.70;;;;;;2252234;61;20774;-61
2023/09/12 09:55:43;0.00;0.00;0.62;0.00;0.00;0.62;3.80;3.50;;;32.40;32.30;;;;;;2252495;61;21065;-61
2023/09/12 09:58:27;0.00;0.00;0.62;0.00;0.00;0.62;3.73;3.43;;;32.30;31.60;;;;;;2252849;61;20390;-59
2023/09/12 10:01:16;0.00;0.00;0.62;0.00;0.00;0.62;4.10;3.70;;;32.30;31.60;;;;;;2252358;61;20425;-61
2023/09/12 10:04:02;0.00;0.00;0.62;0.00;0.00;0.62;4.00;3.57;;;32.40;31.70;;;;;;2252420;61;20417;-61
2023/09/12 10:06:47;0.00;0.00;0.62;0.00;0.00;0.62;3.67;2.93;;;32.30;31.60;;;;;;2252466;61;20430;-61
2023/09/12 10:09:33;0.00;0.00;0.62;0.00;0.00;0.62;4.10;3.70;;;32.30;31.60;;;;;;2252562;61;20362;-61
2023/09/12 10:12:18;0.00;0.00;0.62;0.00;0.00;0.62;4.67;3.63;;;32.40;31.70;;;;;;2252280;61;20487;-61
2023/09/12 10:15:06;0.00;0.00;0.62;0.00;0.00;0.62;3.83;3.43;;;32.30;31.60;;;;;;2252214;61;20374;-62
2023/09/12 10:18:02;0.00;0.00;0.62;0.00;0.00;0.62;5.03;3.80;;;32.30;31.60;;;;;;2252364;61;20394;-65
2023/09/12 10:20:54;0.00;0.00;0.62;0.00;0.00;0.62;3.43;3.13;;;32.30;31.70;;;;;;2252933;61;20374;-60
2023/09/12 10:23:44;0.00;0.00;0.62;0.00;0.00;0.62;5.10;3.20;;;32.30;31.70;;;;;;2251806;61;20414;-61
2023/09/12 10:26:31;0.00;0.00;0.62;0.00;0.00;0.62;4.77;3.50;;;32.30;31.70;;;;;;2252701;61;20385;-61
2023/09/12 10:29:16;0.00;0.00;0.62;0.00;0.00;0.62;3.50;3.17;;;32.30;31.70;;;;;;2252437;61;20386;-60
2023/09/12 10:32:01;0.00;0.00;0.62;0.00;0.00;0.62;3.93;3.60;;;32.30;31.70;;;;;;2252002;61;20414;-61
2023/09/12 10:34:49;0.00;0.00;0.62;0.00;0.00;0.62;3.73;3.40;;;32.30;31.70;;;;;;2252541;61;20367;-61
2023/09/12 10:37:37;0.00;0.00;0.62;0.00;0.00;0.62;3.60;3.30;;;32.30;31.70;;;;;;2252532;61;20441;-61
2023/09/12 10:40:22;0.00;0.00;0.62;0.00;0.00;0.62;3.83;3.00;;;32.30;31.70;;;;;;2252331;61;20682;-62
2023/09/12 10:43:10;0.00;0.00;0.62;0.00;0.00;0.62;4.80;3.27;;;32.30;31.70;;;;;;2252222;61;20363;-61
2023/09/12 10:45:56;0.00;0.00;0.62;0.00;0.00;0.62;4.20;3.07;;;32.30;31.70;;;;;;2252313;61;20764;-58
2023/09/12 10:48:41;0.00;0.00;0.62;0.00;0.00;0.62;3.97;3.57;;;32.30;31.70;;;;;;2252360;61;20426;-60
2023/09/12 10:51:27;0.00;0.00;0.62;0.00;0.00;0.62;3.60;3.03;;;32.20;31.70;;;;;;2252378;61;20362;-61
2023/09/12 10:54:14;0.00;0.00;0.62;0.00;0.00;0.62;4.00;3.60;;;32.30;31.70;;;;;;2251964;61;20839;-61